Latest Weather Observations for Bankstown

IDN60901

Issued at 12:11 pm EST Saturday 28 May 2016 (issued every 10 minutes, with the page automatically refreshed every 10 minutes)

About weather observations | Map of Sydney area stations | Latest observations for Sydney area | Other Formats
Station Details ID: 066137 Name: BANKSTOWN AIRPORT AWS Lat: -33.92 Lon: 150.99 Height: 6.5 m
Data from the previous 72 hours. | See also: Recent months at Bankstown
Date/Time
EST
Tmp

°C
App
Tmp
°C
Dew
Point
°C
Rel
Hum
%
Delta-T

°C
Wind Press
QNH
hPa
Press
MSL
hPa
Rain
since
9 am
mm
Dir
 
Spd
km/h
Gust
km/h
Spd
kts
Gust
kts
28/12:00pm 10.1 7.8 9.0 93 0.5 SSW 11 15 6 8 1006.5 1006.5 5.6
28/11:30am 11.1 9.4 10.0 93 0.6 W 9 13 5 7 1006.8 1006.8 5.0
28/11:00am 10.9 8.7 9.5 91 0.7 NNW 11 13 6 7 1007.0 1007.0 3.6
28/10:30am 10.5 9.3 9.4 93 0.5 NW 6 9 3 5 1007.1 1007.1 1.6
28/10:00am 9.6 8.0 8.0 90 0.8 WNW 6 9 3 5 1007.4 1007.4 1.0
28/09:30am 9.3 8.4 5.9 79 1.6 CALM 0 0 0 0 1007.5 1007.5 0.0
28/09:00am 9.0 8.0 5.6 79 1.5 CALM 0 0 0 0 1007.5 1007.5 0.0
28/08:30am 8.5 7.4 4.9 78 1.6 CALM 0 0 0 0 1007.4 1007.4 0.0
28/08:00am 8.0 6.8 4.6 79 1.5 CALM 0 4 0 2 1007.3 1007.3 0.0
28/07:30am 6.9 5.7 4.6 85 1.0 CALM 0 0 0 0 1007.2 1007.2 0.0
28/07:00am 5.9 4.5 3.4 84 1.0 CALM 0 0 0 0 1007.3 1007.3 0.0
28/06:30am 4.4 2.7 1.9 84 1.0 CALM 0 0 0 0 1007.2 1007.2 0.0
28/06:00am 4.8 3.2 2.7 86 0.9 CALM 0 0 0 0 1007.0 1007.0 0.0
28/05:30am 4.2 2.4 1.1 80 1.2 CALM 0 9 0 5 1006.9 1006.9 0.0
28/05:00am 5.8 4.2 2.3 78 1.4 CALM 0 0 0 0 1006.9 1006.9 0.0
28/04:30am 5.7 4.2 3.0 83 1.1 CALM 0 0 0 0 1007.0 1007.0 0.0
28/04:00am 6.0 3.0 1.9 75 1.7 NNW 7 9 4 5 1006.9 1006.9 0.0
28/03:30am 6.6 3.6 1.7 71 2.0 N 7 9 4 5 1006.9 1006.9 0.0
28/03:00am 8.8 5.6 2.8 66 2.6 N 9 11 5 6 1007.1 1007.1 0.0
28/02:30am 7.4 4.3 1.3 65 2.5 N 7 9 4 5 1007.4 1007.4 0.0
28/02:00am 9.0 5.7 2.6 64 2.7 N 9 13 5 7 1007.6 1007.6 0.0
28/01:30am 8.0 4.2 1.8 65 2.5 N 11 13 6 7 1007.7 1007.7 0.0
28/01:00am 9.5 6.2 2.6 62 2.9 WNW 9 13 5 7 1007.8 1007.8 0.0
28/12:30am 10.0 6.4 3.1 62 3.0 WNW 11 15 6 8 1007.8 1007.8 0.0
28/12:00am 8.9 4.8 2.0 62 2.9 WNW 13 15 7 8 1007.8 1007.8 0.0
 
Date/Time
EST
Tmp

°C
App
Tmp
°C
Dew
Point
°C
Rel
Hum
%
Delta-T

°C
Wind Press
QNH
hPa
Press
MSL
hPa
Rain
since
9 am
mm
Dir
 
Spd
km/h
Gust
km/h
Spd
kts
Gust
kts
27/11:30pm 10.3 6.7 2.9 60 3.2 W 11 15 6 8 1008.0 1008.0 0.0
27/11:00pm 10.1 6.5 2.9 61 3.1 W 11 15 6 8 1008.0 1008.0 0.0
27/10:30pm 10.3 6.5 1.9 56 3.5 WNW 11 13 6 7 1007.8 1007.8 0.0
27/10:00pm 12.4 8.6 1.7 48 4.6 N 11 17 6 9 1007.7 1007.7 0.0
27/09:30pm 13.3 8.0 1.9 46 4.9 WSW 19 30 10 16 1007.5 1007.5 0.0
27/09:00pm 13.4 6.8 2.0 46 5.0 W 26 37 14 20 1007.3 1007.3 0.0
27/08:30pm 13.7 8.2 2.0 45 5.1 WSW 20 28 11 15 1007.0 1007.0 0.0
27/08:00pm 14.0 7.7 1.6 43 5.4 WSW 24 39 13 21 1006.6 1006.6 0.0
27/07:30pm 14.1 7.4 1.7 43 5.4 WSW 26 39 14 21 1006.3 1006.3 0.0
27/07:00pm 14.2 7.5 1.5 42 5.5 W 26 39 14 21 1005.7 1005.7 0.0
27/06:30pm 14.3 8.3 1.2 41 5.6 WSW 22 32 12 17 1005.2 1005.2 0.0
27/06:00pm 14.8 8.8 1.0 39 6.0 WSW 22 37 12 20 1004.6 1004.6 0.0
27/05:30pm 14.9 9.4 0.7 38 6.1 W 19 28 10 15 1003.9 1003.9 0.0
27/05:00pm 15.6 7.6 0.2 35 6.6 WSW 32 44 17 24 1003.1 1003.1 0.0
27/04:30pm 16.3 8.3 0.4 34 6.9 WSW 32 46 17 25 1002.9 1002.9 0.0
27/04:03pm 16.9 9.6 0.1 32 7.2 W 28 46 15 25 1002.6 1002.6 0.0
27/04:00pm 16.9 8.9 0.1 32 7.3 W 32 46 17 25 1002.4 1002.4 0.0
27/03:47pm 16.9 8.7 0.1 32 7.2 W 33 54 18 29 1002.2 1002.2 0.0
27/03:30pm 17.2 9.2 0.4 32 7.3 W 32 46 17 25 1002.2 1002.2 0.0
27/03:16pm 17.3 8.7 0.5 32 7.3 W 35 54 19 29 1002.2 1002.2 0.0
27/03:00pm 17.4 8.4 0.1 31 7.5 W 37 50 20 27 1002.2 1002.2 0.0
27/02:30pm 17.8 10.1 0.0 30 7.7 W 30 44 16 24 1001.8 1001.8 0.0
27/02:00pm 17.8 9.5 0.0 30 7.8 WSW 33 48 18 26 1001.9 1001.9 0.0
27/01:45pm 18.0 10.0 0.2 30 7.8 W 32 52 17 28 1001.6 1001.6 0.0
27/01:30pm 18.1 9.6 0.7 31 7.7 WSW 35 46 19 25 1001.7 1001.7 0.0
27/01:08pm 17.6 9.4 0.3 31 7.5 WSW 33 52 18 28 1001.9 1001.9 0.0
27/01:00pm 17.8 9.8 0.5 31 7.6 WSW 32 46 17 25 1001.9 1001.9 0.0
27/12:30pm 17.7 9.7 0.4 31 7.5 WSW 32 48 17 26 1002.1 1002.1 0.0
27/12:00pm 17.8 9.5 0.0 30 7.7 WSW 33 54 18 29 1002.3 1002.3 0.0
27/11:43am 17.5 9.2 -0.2 30 7.6 WSW 33 52 18 28 1002.5 1002.5 0.0
27/11:30am 17.3 8.7 0.0 31 7.5 WSW 35 52 19 28 1002.5 1002.5 0.0
27/11:00am 17.4 9.4 0.1 31 7.5 WSW 32 54 17 29 1003.1 1003.1 0.0
27/10:59am 17.3 9.2 0.0 31 7.5 WSW 32 54 17 29 1003.1 1003.1 0.0
27/10:30am 17.1 10.7 0.7 33 7.2 WSW 24 37 13 20 1003.4 1003.4 0.0
27/10:00am 16.7 10.7 1.2 35 6.8 WSW 22 32 12 17 1003.6 1003.6 0.0
27/09:30am 16.1 10.7 1.4 37 6.5 W 19 28 10 15 1003.7 1003.7 0.0
27/09:00am 15.6 11.0 1.4 38 6.2 W 15 20 8 11 1003.6 1003.6 0.0
27/08:30am 14.0 10.2 2.0 44 5.2 W 11 17 6 9 1003.6 1003.6 0.0
27/08:00am 13.4 9.7 2.3 47 4.9 W 11 19 6 10 1003.5 1003.5 0.0
27/07:30am 12.6 8.2 2.7 51 4.3 WSW 15 20 8 11 1003.3 1003.3 0.0
27/07:00am 12.5 8.1 2.9 52 4.2 WSW 15 26 8 14 1003.3 1003.3 0.0
27/06:30am 12.3 7.1 3.8 56 3.8 WSW 20 32 11 17 1003.0 1003.0 0.0
27/06:00am 10.7 7.9 3.3 60 3.2 SW 7 11 4 6 1002.9 1002.9 0.0
27/05:30am 12.3 8.4 3.5 55 3.9 W 13 17 7 9 1002.4 1002.4 0.0
27/05:00am 12.4 8.7 4.6 59 3.6 WNW 13 17 7 9 1002.1 1002.1 0.0
27/04:30am 12.4 9.1 4.6 59 3.6 WSW 11 17 6 9 1002.1 1002.1 0.0
27/04:00am 12.6 9.7 4.8 59 3.6 SW 9 17 5 9 1002.2 1002.2 0.0
27/03:30am 10.9 8.3 3.2 59 3.4 SSE 6 9 3 5 1002.1 1002.1 0.0
27/03:00am 13.4 10.7 3.8 52 4.4 SE 7 9 4 5 1002.2 1002.2 0.0
27/02:30am 13.7 10.5 3.2 49 4.7 S 9 13 5 7 1002.4 1002.4 0.0
27/02:00am 15.0 9.7 3.2 45 5.4 W 20 37 11 20 1002.2 1002.2 0.0
27/01:30am 13.4 10.6 5.3 58 3.8 W 9 17 5 9 1001.7 1001.7 0.0
27/01:00am 14.2 11.1 5.6 56 4.1 WSW 11 15 6 8 1002.0 1002.0 0.0
27/12:30am 14.9 11.5 6.0 55 4.3 SW 13 22 7 12 1002.0 1002.0 0.0
27/12:00am 14.8 11.5 6.4 57 4.1 SSW 13 20 7 11 1001.9 1001.9 0.0
 
Date/Time
EST
Tmp

°C
App
Tmp
°C
Dew
Point
°C
Rel
Hum
%
Delta-T

°C
Wind Press
QNH
hPa
Press
MSL
hPa
Rain
since
9 am
mm
Dir
 
Spd
km/h
Gust
km/h
Spd
kts
Gust
kts
26/11:30pm 14.7 12.4 7.5 62 3.6 SW 9 13 5 7 1002.2 1002.2 0.0
26/11:00pm 13.9 12.7 9.5 75 2.3 SW 6 20 3 11 1002.3 1002.3 0.0
26/10:30pm 13.6 13.4 9.1 74 2.3 CALM 0 0 0 0 1002.3 1002.3 0.0
26/10:00pm 13.1 12.1 8.8 75 2.2 SSE 4 7 2 4 1002.2 1002.2 0.0
26/09:30pm 13.5 12.8 8.4 71 2.5 SSE 2 6 1 3 1002.5 1002.5 0.0
26/09:00pm 14.2 12.5 8.4 68 2.9 SSE 7 9 4 5 1002.3 1002.3 0.0
26/08:30pm 14.7 12.6 8.2 65 3.3 SW 9 9 5 5 1002.2 1002.2 0.0
26/08:00pm 15.4 13.3 8.4 63 3.6 NNW 9 13 5 7 1002.0 1002.0 0.0
26/07:30pm 15.8 13.3 8.1 60 3.9 NNW 11 15 6 8 1001.9 1001.9 0.0
26/07:00pm 16.5 12.9 8.2 58 4.2 NW 17 22 9 12 1001.6 1001.6 0.0
26/06:30pm 16.5 12.9 8.5 59 4.1 NNW 17 24 9 13 1001.3 1001.3 0.0
26/06:00pm 16.8 13.5 8.0 56 4.5 NNW 15 22 8 12 1001.5 1001.5 0.0
26/05:30pm 18.1 13.1 8.1 52 5.1 NW 24 33 13 18 1000.9 1000.9 0.0
26/05:00pm 18.3 13.7 8.3 52 5.2 WNW 22 33 12 18 1000.7 1000.7 0.0
26/04:30pm 19.1 14.1 8.1 49 5.7 WNW 24 35 13 19 1000.3 1000.3 0.0
26/04:00pm 19.9 14.2 8.3 47 6.1 WNW 28 43 15 23 1000.3 1000.3 0.0
26/03:30pm 20.3 14.6 8.3 46 6.2 WNW 28 44 15 24 1000.2 1000.2 0.0
26/03:00pm 20.6 15.7 8.6 46 6.3 WNW 24 35 13 19 1000.3 1000.3 0.0
26/02:30pm 20.7 14.9 9.3 48 6.1 NW 30 39 16 21 1000.5 1000.5 0.0
26/02:00pm 20.9 17.1 8.9 46 6.4 NW 19 28 10 15 1000.9 1000.9 0.0
26/01:30pm 19.8 16.4 9.1 50 5.6 NNW 17 26 9 14 1001.4 1001.4 0.0
26/01:00pm 18.8 14.2 8.2 50 5.5 NNW 22 32 12 17 1002.0 1002.0 0.0
26/12:30pm 18.0 13.1 8.6 54 4.9 NNW 24 33 13 18 1002.6 1002.6 0.0
26/12:00pm 16.5 12.0 8.5 59 4.1 NNW 22 32 12 17 1003.3 1003.3 0.0
26/11:30am 16.0 11.7 7.0 55 4.4 N 19 28 10 15 1003.8 1003.8 0.0
26/11:00am 15.3 11.7 6.6 56 4.3 N 15 20 8 11 1004.6 1004.6 0.0
26/10:30am 15.1 11.0 6.4 56 4.2 N 17 24 9 13 1005.8 1005.8 0.0
26/10:00am 15.3 11.9 5.8 53 4.6 NNW 13 17 7 9 1006.5 1006.5 0.0
26/09:30am 15.6 12.6 5.8 52 4.7 N 11 20 6 11 1006.7 1006.7 0.0
26/09:00am 14.6 11.7 6.7 59 3.8 N 11 17 6 9 1006.4 1006.4 0.4
26/08:30am 14.0 11.2 7.1 63 3.4 N 11 17 6 9 1006.9 1006.9 0.4
26/08:00am 12.8 11.1 8.3 74 2.2 NNW 7 11 4 6 1008.2 1008.2 0.4
26/07:30am 12.9 11.3 7.8 71 2.5 N 6 9 3 5 1008.3 1008.3 0.4
26/07:00am 12.2 9.4 8.5 78 1.8 NNW 13 17 7 9 1008.7 1008.7 0.4
26/06:30am 11.1 11.0 9.4 89 0.9 CALM 0 0 0 0 1008.8 1008.8 0.4
26/06:00am 10.6 10.1 9.2 91 0.7 SSW 2 9 1 5 1009.3 1009.3 0.4
26/05:30am 10.8 9.9 9.1 89 0.8 SSE 4 7 2 4 1009.2 1009.2 0.4
26/05:00am 10.7 10.2 9.3 91 0.7 S 2 6 1 3 1010.1 1010.1 0.4
26/04:30am 10.5 10.2 8.6 88 0.9 CALM 0 0 0 0 1009.8 1009.8 0.4
26/04:00am 11.1 10.8 8.5 84 1.3 CALM 0 4 0 2 1009.9 1009.9 0.4
26/03:30am 11.1 10.6 8.0 81 1.5 CALM 0 0 0 0 1010.9 1010.9 0.2
26/03:00am 10.9 9.4 8.5 85 1.2 S 6 7 3 4 1011.0 1011.0 0.0
26/02:30am 11.1 9.6 8.5 84 1.3 SSE 6 9 3 5 1010.9 1010.9 0.0
26/02:00am 11.4 10.9 7.7 78 1.8 CALM 0 0 0 0 1010.9 1010.9 0.0
26/01:30am 11.3 10.8 7.8 79 1.7 CALM 0 0 0 0 1011.4 1011.4 0.0
26/01:00am 12.0 11.4 7.5 74 2.2 CALM 0 0 0 0 1011.7 1011.7 0.0
26/12:30am 11.4 10.6 6.3 71 2.4 CALM 0 0 0 0 1012.0 1012.0 0.0
26/12:20am 11.4 10.5 6.1 70 2.5 CALM 0 0 0 0 1012.1 1012.1 0.0
26/12:06am 11.2 9.9 6.1 71 2.4 S 2 6 1 3 1012.4 1012.4 0.0
26/12:00am 11.2 9.5 5.9 70 2.5 S 4 6 2 3 1012.4 1012.4 0.0
 
Date/Time
EST
Tmp

°C
App
Tmp
°C
Dew
Point
°C
Rel
Hum
%
Delta-T

°C
Wind Press
QNH
hPa
Press
MSL
hPa
Rain
since
9 am
mm
Dir
 
Spd
km/h
Gust
km/h
Spd
kts
Gust
kts
25/11:30pm 11.7 10.7 5.6 66 2.8 CALM 0 6 0 3 1012.8 1012.8 0.0
25/11:00pm 11.2 9.2 6.3 72 2.3 WSW 6 7 3 4 1013.5 1013.5 0.0
25/10:30pm 10.3 9.4 6.1 75 1.9 CALM 0 0 0 0 1013.2 1013.2 0.0
25/10:00pm 10.7 8.8 6.5 75 2.0 W 6 7 3 4 1013.6 1013.6 0.0
25/09:30pm 11.0 9.9 5.1 67 2.7 CALM 0 0 0 0 1013.6 1013.6 0.0
25/09:00pm 12.0 10.9 5.2 63 3.1 CALM 0 0 0 0 1013.8 1013.8 0.0
25/08:30pm 12.2 10.8 5.6 64 3.1 W 2 6 1 3 1014.0 1014.0 0.0
25/08:00pm 12.7 11.7 5.8 63 3.2 CALM 0 0 0 0 1014.0 1014.0 0.0
25/07:30pm 12.5 10.4 5.9 64 3.1 W 6 7 3 4 1013.8 1013.8 0.0
25/07:00pm 13.7 12.1 4.6 54 4.2 N 2 6 1 3 1013.5 1013.5 0.0
25/06:30pm 16.0 12.9 5.6 50 5.0 NNE 11 15 6 8 1013.5 1013.5 0.0
25/06:00pm 16.3 12.6 4.7 46 5.5 NNE 13 19 7 10 1013.6 1013.6 0.0
25/05:30pm 16.6 13.4 3.3 41 6.1 NNE 9 13 5 7 1013.4 1013.4 0.0
25/05:00pm 16.6 13.8 2.2 38 6.5 ENE 6 7 3 4 1013.2 1013.2 0.0
25/04:30pm 18.7 15.8 1.2 31 7.8 ENE 6 7 3 4 1013.2 1013.2 0.0
25/04:00pm 19.7 17.0 0.2 27 8.6 NNE 4 9 2 5 1013.0 1013.0 0.0
25/03:30pm 19.6 16.4 -0.4 26 8.7 N 6 9 3 5 1013.1 1013.1 0.0
25/03:00pm 20.5 17.4 0.4 26 9.0 WSW 6 9 3 5 1013.5 1013.5 0.0
25/02:30pm 19.5 16.3 -0.5 26 8.7 SSE 6 9 3 5 1013.2 1013.2 0.0
25/02:00pm 19.7 16.3 -0.3 26 8.8 WSW 7 11 4 6 1013.5 1013.5 0.0
25/01:30pm 19.7 16.7 0.7 28 8.5 ENE 6 9 3 5 1014.0 1014.0 0.0
25/01:00pm 19.1 15.5 0.7 29 8.2 NW 9 13 5 7 1014.7 1014.7 0.0
25/12:30pm 18.5 14.3 1.9 33 7.5 NW 13 19 7 10 1015.4 1015.4 0.0

Latest Capital City Observations: Canberra | Sydney | Melbourne | Brisbane | Adelaide | Perth | Hobart | Darwin

Other Formats:

Comma delimited format used in spreadsheet applications
http://www.bom.gov.au/fwo/IDN60901/IDN60901.94765.axf

JavaScript Object Notation format (JSON) in row-major order
http://www.bom.gov.au/fwo/IDN60901/IDN60901.94765.json